Latest Weather Observations for Sheoaks

IDV60801

Issued at 4:05 pm EST Sunday 21 September 2014 (issued every 30 minutes, with the page automatically refreshed every 10 minutes)

About weather observations | Map of weather stations | Latest weather observations for VIC | Other Formats
Station Details ID: 087168 Name: SHEOAKS Lat: -37.91 Lon: 144.13 Height: 236.7 m
Data from the previous 72 hours. | See also: Recent months at Sheoaks
Date/Time
EST
Temp
°C
App
Temp
°C
Dew
Point
Rel
Hum
%
Delta-T
°C
Wind Press
QNH
hPa
Press
MSL
hPa
Rain
since 9 am
mm
Dir
 
Spd
km/h
Gust
km/h
Spd
kts
Gust
kts
21/04:00pm 14.9 12.3 6.0 55 4.3 SE 9 15 5 8 1029.5 1029.7 0.0
21/03:30pm 14.8 11.4 5.9 55 4.3 SE 13 20 7 11 1029.6 1029.8 0.0
21/03:00pm 14.9 11.8 5.7 54 4.4 SE 11 17 6 9 1029.6 1029.8 0.0
21/02:30pm 14.8 12.2 5.9 55 4.3 ESE 9 15 5 8 1029.9 1030.1 0.0
21/02:00pm 15.0 11.7 6.6 57 4.1 SE 13 19 7 10 1030.1 1030.3 0.0
21/01:30pm 14.5 11.5 6.1 57 4.1 ESE 11 19 6 10 1030.4 1030.6 0.0
21/01:00pm 14.2 11.7 6.6 60 3.7 SE 9 19 5 10 1030.9 1031.1 0.0
21/12:30pm 14.2 11.4 6.8 61 3.6 ESE 11 19 6 10 1031.2 1031.4 0.0
21/12:00pm 13.8 10.9 6.4 61 3.6 SE 11 19 6 10 1031.5 1031.7 0.0
21/11:30am 13.7 10.6 5.6 58 3.9 ESE 11 19 6 10 1031.8 1032.0 0.0
21/11:00am 13.2 9.0 5.9 61 3.5 SE 17 22 9 12 1032.1 1032.3 0.0
21/10:30am 12.2 8.2 4.7 60 3.4 ESE 15 26 8 14 1032.1 1032.3 0.0
21/10:00am 12.6 9.0 5.1 60 3.5 ESE 13 19 7 10 1032.0 1032.2 0.0
21/09:30am 11.7 8.0 4.7 62 3.2 ESE 13 19 7 10 1031.7 1031.9 0.0
21/09:00am 11.7 8.5 5.3 65 3.0 ESE 11 20 6 11 1031.6 1031.8 0.0
21/08:30am 10.9 8.7 6.1 72 2.3 SE 7 9 4 5 1031.5 1031.7 0.0
21/08:00am 7.5 6.1 7.4 99 0.0 N 4 4 2 2 1031.2 1031.4 0.0
21/07:30am 5.1 3.2 5.0 99 0.0 N 4 7 2 4 1031.2 1031.4 0.0
21/07:00am 4.6 3.4 4.5 99 0.0 CALM 0 0 0 0 1031.0 1031.2 0.0
21/06:30am 4.6 2.6 4.3 98 0.1 N 4 6 2 3 1030.7 1030.9 0.0
21/06:00am 5.0 3.8 4.7 98 0.1 NNE 0 2 0 1 1030.3 1030.5 0.0
21/05:30am 5.6 4.5 5.3 98 0.1 CALM 0 2 0 1 1030.1 1030.3 0.0
21/05:00am 5.7 4.7 5.4 98 0.1 CALM 0 4 0 2 1030.1 1030.3 0.0
21/04:30am 6.3 5.0 6.2 99 0.0 E 2 4 1 2 1030.0 1030.2 0.0
21/04:00am 5.7 4.7 5.6 99 0.0 CALM 0 4 0 2 1029.8 1030.0 0.0
21/03:30am 5.8 3.7 5.8 100 0.0 NNW 6 7 3 4 1029.6 1029.8 0.0
21/03:00am 5.3 2.9 5.2 99 0.0 NNW 7 7 4 4 1029.9 1030.1 0.0
21/02:30am 5.1 3.2 5.0 99 0.0 NW 4 7 2 4 1030.3 1030.5 0.0
21/02:00am 4.6 2.2 4.5 99 0.0 NNW 6 7 3 4 1030.5 1030.7 0.0
21/01:30am 4.1 1.6 3.8 98 0.1 N 6 7 3 4 1030.2 1030.4 0.0
21/01:00am 4.3 1.8 3.9 97 0.2 N 6 7 3 4 1030.3 1030.5 0.0
21/12:30am 5.0 2.5 4.6 97 0.2 N 7 7 4 4 1030.4 1030.6 0.0
21/12:00am 5.3 3.8 4.9 97 0.2 N 2 4 1 2 1030.4 1030.6 0.0
 
Date/Time
EST
Temp
°C
App
Temp
°C
Dew
Point
Rel
Hum
%
Delta-T
°C
Wind Press
QNH
hPa
Press
MSL
hPa
Rain
since 9 am
mm
Dir
 
Spd
km/h
Gust
km/h
Spd
kts
Gust
kts
20/11:30pm 5.3 3.4 4.7 96 0.3 N 4 4 2 2 1030.3 1030.5 0.0
20/11:00pm 5.8 4.0 5.2 96 0.3 N 4 6 2 3 1030.2 1030.4 0.0
20/10:30pm 6.8 5.1 5.9 94 0.4 NNE 4 4 2 2 1030.2 1030.4 0.0
20/10:00pm 7.5 6.6 6.1 91 0.6 CALM 0 0 0 0 1030.3 1030.5 0.0
20/09:30pm 8.3 7.5 6.6 89 0.8 CALM 0 2 0 1 1030.3 1030.5 0.0
20/09:00pm 8.4 6.8 6.4 87 0.9 ESE 4 4 2 2 1030.4 1030.6 0.0
20/08:30pm 8.8 7.3 6.6 86 1.0 ESE 4 6 2 3 1030.4 1030.6 0.0
20/08:00pm 9.3 7.8 6.6 83 1.3 SSE 4 6 2 3 1030.5 1030.7 0.0
20/07:30pm 9.3 7.1 6.4 82 1.4 SE 7 11 4 6 1030.1 1030.3 0.0
20/07:00pm 9.7 7.7 6.4 80 1.5 SE 6 11 3 6 1029.8 1030.0 0.0
20/06:30pm 9.8 6.9 6.3 79 1.6 SE 11 15 6 8 1029.3 1029.5 0.0
20/06:00pm 10.6 7.3 6.4 75 2.0 SSE 13 19 7 10 1029.1 1029.4 0.0
20/05:30pm 11.0 7.4 6.7 75 2.1 SSE 15 24 8 13 1028.7 1028.9 0.0
20/05:00pm 11.8 8.6 5.2 64 3.1 SSE 11 19 6 10 1028.3 1028.5 0.0
20/04:30pm 12.2 8.9 6.5 68 2.7 SE 13 17 7 9 1028.0 1028.2 0.0
20/04:00pm 12.1 9.2 6.6 69 2.6 SSE 11 22 6 12 1028.0 1028.2 0.0
20/03:30pm 12.3 9.6 7.2 71 2.5 SSE 11 20 6 11 1027.7 1027.9 0.0
20/03:00pm 12.5 9.2 6.3 66 3.0 SSE 13 19 7 10 1027.5 1027.7 0.0
20/02:30pm 12.9 9.6 6.3 64 3.2 S 13 20 7 11 1027.4 1027.6 0.0
20/02:00pm 13.1 10.6 4.8 57 3.8 S 7 15 4 8 1027.3 1027.5 0.0
20/01:30pm 12.9 10.1 5.3 60 3.6 SE 9 15 5 8 1027.5 1027.7 0.0
20/01:00pm 12.5 9.2 4.7 59 3.6 SSE 11 15 6 8 1027.5 1027.7 0.0
20/12:30pm 13.0 10.9 5.7 61 3.5 SSW 6 15 3 8 1027.7 1027.9 0.0
20/12:00pm 12.5 9.5 5.9 64 3.1 SSW 11 15 6 8 1027.8 1028.0 0.0
20/11:30am 12.5 10.2 5.7 63 3.2 S 7 13 4 7 1028.0 1028.2 0.0
20/11:00am 12.9 9.6 4.8 58 3.7 SSE 11 17 6 9 1028.1 1028.3 0.0
20/10:30am 12.1 8.8 4.8 61 3.4 S 11 19 6 10 1028.4 1028.6 0.0
20/10:00am 11.8 8.6 5.0 63 3.1 S 11 19 6 10 1028.4 1028.6 0.0
20/09:30am 11.2 7.7 5.3 67 2.7 S 13 17 7 9 1028.4 1028.6 0.0
20/09:00am 10.8 8.1 5.8 71 2.3 SSW 9 15 5 8 1028.3 1028.5 0.0
20/08:30am 9.9 7.7 6.3 78 1.7 SSW 7 13 4 7 1028.2 1028.4 0.0
20/08:00am 9.3 7.4 6.6 83 1.3 SW 6 11 3 6 1027.7 1027.9 0.0
20/07:30am 8.5 5.6 6.6 88 0.9 W 11 15 6 8 1027.3 1027.5 0.0
20/07:00am 7.9 6.3 6.4 90 0.7 W 4 11 2 6 1027.1 1027.3 0.0
20/06:30am 7.5 5.4 5.8 89 0.8 W 6 9 3 5 1026.8 1027.0 0.0
20/06:00am 7.7 5.6 5.7 87 0.9 W 6 9 3 5 1026.5 1026.7 0.0
20/05:30am 8.0 6.6 5.3 83 1.2 SW 2 4 1 2 1026.0 1026.2 0.0
20/05:00am 7.8 6.9 6.1 89 0.8 CALM 0 0 0 0 1025.7 1025.9 0.0
20/04:30am 8.0 5.9 6.5 90 0.7 W 7 9 4 5 1025.5 1025.7 0.0
20/04:00am 8.1 5.5 6.1 87 0.9 W 9 15 5 8 1025.4 1025.5 0.0
20/03:30am 8.3 5.9 4.5 77 1.7 WSW 6 11 3 6 1025.4 1025.5 0.0
20/03:00am 8.0 5.5 3.8 75 1.8 W 6 9 3 5 1025.3 1025.4 0.0
20/02:30am 8.2 5.6 6.3 88 0.9 W 9 17 5 9 1025.4 1025.5 0.0
20/02:00am 8.1 5.7 6.9 92 0.6 W 9 13 5 7 1025.7 1025.9 0.0
20/01:30am 7.9 5.7 6.4 90 0.7 W 7 11 4 6 1025.8 1026.0 0.0
20/01:00am 8.4 6.4 6.4 87 0.9 W 6 9 3 5 1025.9 1026.1 0.0
20/12:30am 8.4 6.8 6.5 88 0.9 WSW 4 11 2 6 1025.7 1025.9 0.0
20/12:00am 8.1 6.9 6.4 89 0.8 WSW 2 4 1 2 1025.6 1025.8 0.0
 
Date/Time
EST
Temp
°C
App
Temp
°C
Dew
Point
Rel
Hum
%
Delta-T
°C
Wind Press
QNH
hPa
Press
MSL
hPa
Rain
since 9 am
mm
Dir
 
Spd
km/h
Gust
km/h
Spd
kts
Gust
kts
19/11:30pm 8.4 6.9 6.7 89 0.8 SW 4 7 2 4 1025.7 1025.9 0.0
19/11:00pm 8.3 5.9 7.1 92 0.6 W 9 13 5 7 1025.9 1026.1 0.0
19/10:30pm 6.7 5.0 5.7 93 0.5 NNW 4 7 2 4 1025.9 1026.1 0.0
19/10:00pm 6.5 4.7 5.6 94 0.4 WNW 4 7 2 4 1026.1 1026.3 0.0
19/09:30pm 6.0 3.8 5.1 94 0.4 NNW 6 7 3 4 1026.2 1026.4 0.0
19/09:00pm 5.9 3.6 4.9 93 0.4 N 6 7 3 4 1026.1 1026.3 0.0
19/08:30pm 6.3 4.4 4.9 91 0.6 NNW 4 6 2 3 1026.0 1026.2 0.0
19/08:00pm 7.7 6.0 5.7 87 0.9 NW 4 4 2 2 1025.8 1026.0 0.0
19/07:30pm 8.3 6.6 6.1 86 1.0 W 4 7 2 4 1025.5 1025.7 0.0
19/07:00pm 8.8 6.2 6.3 84 1.2 W 9 13 5 7 1025.3 1025.4 0.0
19/06:30pm 9.6 7.0 6.1 79 1.6 SW 9 13 5 7 1024.9 1025.0 0.0
19/06:00pm 10.7 7.3 5.7 71 2.3 SSW 13 22 7 12 1024.6 1024.8 0.0
19/05:30pm 11.9 7.9 6.6 70 2.5 SW 17 24 9 13 1024.4 1024.6 0.0
19/05:00pm 13.0 10.2 6.8 66 3.0 WSW 11 19 6 10 1024.0 1024.2 0.0
19/04:30pm 12.5 9.4 7.2 70 2.6 SW 13 20 7 11 1023.8 1024.0 0.0
19/04:00pm 12.0 9.3 7.3 73 2.3 SW 11 19 6 10 1023.9 1024.1 0.0
19/03:30pm 12.4 8.6 5.8 64 3.1 WSW 15 28 8 15 1023.7 1023.9 0.0
19/03:00pm 12.2 8.9 6.5 68 2.7 SW 13 20 7 11 1023.8 1024.0 0.0
19/02:30pm 11.3 6.9 6.4 72 2.3 SSW 19 28 10 15 1024.0 1024.2 0.0
19/02:00pm 12.1 8.8 6.2 67 2.8 SW 13 22 7 12 1024.0 1024.2 0.0
19/01:30pm 11.7 8.3 5.8 67 2.8 SW 13 22 7 12 1024.2 1024.4 0.0
19/01:00pm 12.7 9.5 4.9 59 3.6 SW 11 17 6 9 1024.3 1024.5 0.0
19/12:30pm 12.7 8.9 5.6 62 3.4 SW 15 22 8 12 1024.5 1024.7 0.0
19/12:00pm 13.6 9.9 6.2 61 3.6 WSW 15 24 8 13 1024.7 1024.9 0.0
19/11:30am 12.4 9.3 5.6 63 3.2 SW 11 22 6 12 1025.0 1025.1 0.0
19/11:00am 12.5 9.3 5.0 60 3.5 WSW 11 24 6 13 1025.2 1025.3 0.0
19/10:30am 11.7 8.1 6.8 72 2.4 WSW 15 22 8 12 1025.4 1025.5 0.0
19/10:00am 11.4 8.3 7.1 75 2.1 W 13 19 7 10 1025.3 1025.4 0.0
19/09:30am 10.6 7.5 7.3 80 1.6 W 13 26 7 14 1025.5 1025.7 0.0
19/09:00am 9.9 6.0 7.2 83 1.3 W 17 26 9 14 1025.5 1025.7 0.0
19/08:30am 8.6 4.9 6.2 85 1.1 W 15 20 8 11 1025.4 1025.5 0.0
19/08:00am 8.8 5.5 6.4 85 1.1 W 13 20 7 11 1025.4 1025.5 0.0
19/07:30am 7.5 4.4 5.6 88 0.9 W 11 19 6 10 1025.2 1025.3 0.0
19/07:00am 6.7 3.1 5.2 90 0.7 WNW 13 19 7 10 1024.7 1024.9 0.0
19/06:30am 7.0 3.1 5.5 90 0.7 W 15 22 8 12 1024.6 1024.8 0.0
19/06:00am 6.3 3.0 4.8 90 0.7 W 11 17 6 9 1024.2 1024.4 0.0
19/05:30am 6.3 2.3 4.8 90 0.7 W 15 19 8 10 1024.0 1024.2 0.0
19/05:00am 6.2 2.9 4.7 90 0.7 W 11 17 6 9 1023.8 1024.0 0.0
19/04:30am 6.6 2.6 4.9 89 0.8 W 15 22 8 12 1023.6 1023.8 0.0
19/04:00am 5.9 2.0 3.6 85 1.0 W 13 19 7 10 1023.8 1024.0 0.0
19/03:30am 6.1 2.6 3.4 83 1.1 W 11 15 6 8 1023.8 1024.0 0.0
19/03:00am 6.2 2.7 3.4 82 1.2 W 11 15 6 8 1023.8 1024.0 0.0
19/02:30am 6.5 3.4 3.5 81 1.3 W 9 15 5 8 1024.0 1024.2 0.0
19/02:00am 7.0 3.8 3.3 77 1.6 W 9 15 5 8 1024.3 1024.5 0.0
19/01:30am 7.0 3.9 3.8 80 1.4 W 9 13 5 7 1024.4 1024.6 0.0
19/01:00am 6.9 4.2 3.5 79 1.5 WNW 7 11 4 6 1024.6 1024.8 0.0
19/12:30am 6.9 3.8 3.7 80 1.4 WNW 9 13 5 7 1024.9 1025.0 0.0
19/12:00am 5.9 3.5 4.1 88 0.8 NNW 6 7 3 4 1025.0 1025.1 0.0
 
Date/Time
EST
Temp
°C
App
Temp
°C
Dew
Point
Rel
Hum
%
Delta-T
°C
Wind Press
QNH
hPa
Press
MSL
hPa
Rain
since 9 am
mm
Dir
 
Spd
km/h
Gust
km/h
Spd
kts
Gust
kts
18/11:30pm 5.4 2.9 3.6 88 0.8 N 6 7 3 4 1025.1 1025.2 0.0
18/11:00pm 5.2 2.5 3.7 90 0.6 NNW 7 9 4 5 1025.3 1025.4 0.0
18/10:30pm 4.9 2.8 3.7 92 0.5 N 4 7 2 4 1025.4 1025.5 0.0
18/10:00pm 4.0 1.6 2.0 87 0.8 NW 4 6 2 3 1025.4 1025.5 0.0
18/09:30pm 5.8 2.7 3.5 85 1.0 W 9 13 5 7 1025.3 1025.4 0.0
18/09:00pm 5.7 2.6 3.4 85 1.0 W 9 13 5 7 1025.2 1025.3 0.0
18/08:30pm 6.1 2.6 3.6 84 1.1 W 11 15 6 8 1025.1 1025.2 0.0
18/08:00pm 6.4 2.8 3.0 79 1.4 W 11 15 6 8 1024.7 1024.9 0.0
18/07:30pm 7.0 3.3 2.5 73 1.9 W 11 17 6 9 1024.6 1024.8 0.0
18/07:00pm 7.5 4.3 3.2 74 1.8 W 9 15 5 8 1024.2 1024.4 0.0
18/06:30pm 8.3 5.6 3.8 73 2.0 WSW 7 11 4 6 1024.2 1024.4 0.0
18/06:00pm 9.5 5.8 4.3 70 2.3 SW 13 20 7 11 1023.9 1024.1 0.0
18/05:30pm 10.5 6.0 4.0 64 2.9 SSW 17 28 9 15 1023.5 1023.7 0.0
18/05:00pm 11.1 6.5 3.9 61 3.2 SW 17 26 9 14 1023.1 1023.3 0.0
18/04:30pm 11.1 6.5 3.6 60 3.4 SW 17 26 9 14 1022.8 1023.0 0.0

Other Formats:

Comma delimited format used in spreadsheet applications
http://www.bom.gov.au/fwo/IDV60801/IDV60801.94863.axf

JavaScript Object Notation format (JSON) in row-major order
http://www.bom.gov.au/fwo/IDV60801/IDV60801.94863.json